createdAt,value
2022-10-05T00:02:37.202Z,14.40
2022-10-05T00:05:30.412Z,14.40
2022-10-05T00:08:20.288Z,14.40
2022-10-05T00:11:08.559Z,14.40
2022-10-05T00:13:56.618Z,14.30
2022-10-05T00:16:43.398Z,14.30
2022-10-05T00:19:34.443Z,14.40
2022-10-05T00:22:22.850Z,14.30
2022-10-05T00:25:14.342Z,14.30
2022-10-05T00:28:02.301Z,14.30
2022-10-05T00:30:50.440Z,14.40
2022-10-05T00:33:37.109Z,14.30
2022-10-05T00:36:26.083Z,14.40
2022-10-05T00:39:12.931Z,14.40
2022-10-05T00:42:28.809Z,14.30
2022-10-05T00:45:19.527Z,14.30
2022-10-05T00:48:19.242Z,14.40
2022-10-05T00:51:20.696Z,14.40
2022-10-05T00:54:22.148Z,14.40
2022-10-05T00:57:31.072Z,14.30
2022-10-05T01:00:21.306Z,14.40
2022-10-05T01:03:14.141Z,14.40
2022-10-05T01:06:13.759Z,14.50
2022-10-05T01:09:08.841Z,14.40
2022-10-05T01:12:04.595Z,14.50
2022-10-05T01:14:57.060Z,14.40
2022-10-05T01:17:49.730Z,14.40
2022-10-05T01:20:48.347Z,14.40
2022-10-05T01:24:09.968Z,14.40
2022-10-05T01:27:18.416Z,14.40
2022-10-05T01:30:10.020Z,14.40
2022-10-05T01:33:08.555Z,14.40
2022-10-05T01:36:03.591Z,14.50
2022-10-05T01:38:59.006Z,14.50
2022-10-05T01:41:52.811Z,14.50
2022-10-05T01:44:45.404Z,14.40
2022-10-05T01:47:43.648Z,14.40
2022-10-05T01:50:38.092Z,14.40
2022-10-05T01:53:35.440Z,14.40
2022-10-05T01:56:31.358Z,14.50
2022-10-05T01:59:29.978Z,14.40
2022-10-05T02:02:19.896Z,14.40
2022-10-05T02:05:14.292Z,14.40
2022-10-05T02:08:04.424Z,14.50
2022-10-05T02:10:56.834Z,14.50
2022-10-05T02:13:46.374Z,14.40
2022-10-05T02:16:37.657Z,14.50
2022-10-05T02:19:28.279Z,14.50
2022-10-05T02:22:21.047Z,14.50
2022-10-05T02:25:12.524Z,14.50
2022-10-05T02:28:02.316Z,14.40
2022-10-05T02:30:52.758Z,14.40
2022-10-05T02:33:39.571Z,14.40
2022-10-05T02:36:33.299Z,14.50
2022-10-05T02:39:29.971Z,14.40
2022-10-05T02:42:24.127Z,14.50
2022-10-05T02:45:20.383Z,14.40
2022-10-05T02:48:13.102Z,14.40
2022-10-05T02:51:09.989Z,14.40
2022-10-05T02:54:12.298Z,14.40
2022-10-05T02:57:05.957Z,14.50
2022-10-05T02:59:59.227Z,14.50
2022-10-05T03:02:52.715Z,14.50
2022-10-05T03:05:44.093Z,14.50
2022-10-05T03:08:37.751Z,14.50
2022-10-05T03:11:30.550Z,14.50
2022-10-05T03:14:24.468Z,14.50
2022-10-05T03:17:16.840Z,14.50
2022-10-05T03:20:22.439Z,14.50
2022-10-05T03:23:17.093Z,14.50
2022-10-05T03:26:29.113Z,14.50
2022-10-05T03:29:30.464Z,14.50
2022-10-05T03:32:26.527Z,14.50
2022-10-05T03:35:16.810Z,14.40
2022-10-05T03:38:10.586Z,14.40
2022-10-05T03:41:07.360Z,14.50
2022-10-05T03:44:16.331Z,14.40
2022-10-05T03:47:26.509Z,14.50
2022-10-05T03:50:26.603Z,14.50
2022-10-05T03:53:18.931Z,14.50
2022-10-05T03:56:11.010Z,14.50
2022-10-05T03:59:00.452Z,14.50
2022-10-05T04:01:56.105Z,14.50
2022-10-05T04:04:50.040Z,14.50
2022-10-05T04:07:43.612Z,14.50
2022-10-05T04:10:39.188Z,14.40
2022-10-05T04:13:32.418Z,14.50
2022-10-05T04:16:27.945Z,14.50
2022-10-05T04:19:20.111Z,14.50
2022-10-05T04:22:13.408Z,14.50
2022-10-05T04:25:06.744Z,14.50
2022-10-05T04:28:00.497Z,14.50
2022-10-05T04:30:50.914Z,14.50
2022-10-05T04:33:37.614Z,14.50
2022-10-05T04:36:27.715Z,14.50
2022-10-05T04:39:24.926Z,14.40
2022-10-05T04:42:18.492Z,14.40
2022-10-05T04:45:13.868Z,14.40
2022-10-05T04:48:28.268Z,14.40
2022-10-05T04:51:35.731Z,14.40
2022-10-05T04:54:35.969Z,14.50
2022-10-05T04:57:26.628Z,14.50
2022-10-05T05:00:23.683Z,14.50
2022-10-05T05:03:36.483Z,14.50
2022-10-05T05:06:33.804Z,14.50
2022-10-05T05:09:38.222Z,14.50
2022-10-05T05:12:32.337Z,14.40
2022-10-05T05:15:31.813Z,14.40
2022-10-05T05:18:49.899Z,14.50
2022-10-05T05:21:46.139Z,14.50
2022-10-05T05:24:51.055Z,14.50
2022-10-05T05:27:44.189Z,14.50
2022-10-05T05:30:41.816Z,14.50
2022-10-05T05:33:35.927Z,14.50
2022-10-05T05:36:48.785Z,14.50
2022-10-05T05:39:49.636Z,14.40
2022-10-05T05:42:48.291Z,14.40
2022-10-05T05:45:42.139Z,14.50
2022-10-05T05:48:37.839Z,14.40
2022-10-05T05:51:29.754Z,14.40
2022-10-05T05:54:25.815Z,14.40
2022-10-05T05:57:18.204Z,14.50
2022-10-05T06:00:09.007Z,14.50
2022-10-05T06:03:01.882Z,14.50
2022-10-05T06:05:52.204Z,14.50
2022-10-05T06:08:42.652Z,14.60
2022-10-05T06:11:32.932Z,14.60
2022-10-05T06:14:29.886Z,14.60
2022-10-05T06:17:20.603Z,14.70
2022-10-05T06:20:14.857Z,14.70
2022-10-05T06:23:06.038Z,14.80
2022-10-05T06:26:10.682Z,14.80
2022-10-05T06:29:01.785Z,14.80
2022-10-05T06:32:05.999Z,14.70
2022-10-05T06:35:02.975Z,14.80
2022-10-05T06:38:09.612Z,14.80
2022-10-05T06:41:10.736Z,14.80
2022-10-05T06:44:00.227Z,14.80
2022-10-05T06:46:58.814Z,14.90
2022-10-05T06:49:52.380Z,14.90
2022-10-05T06:52:53.043Z,14.90
2022-10-05T06:55:46.968Z,15.00
2022-10-05T06:58:48.790Z,15.00
2022-10-05T07:01:46.029Z,15.00
2022-10-05T07:04:55.520Z,15.10
2022-10-05T07:07:50.955Z,15.00
2022-10-05T07:10:50.041Z,15.10
2022-10-05T07:14:01.367Z,15.10
2022-10-05T07:17:00.968Z,15.10
2022-10-05T07:19:54.858Z,15.10
2022-10-05T07:23:15.173Z,15.10
2022-10-05T07:26:07.179Z,15.20
2022-10-05T07:29:11.335Z,15.20
2022-10-05T07:32:08.607Z,15.20
2022-10-05T07:35:04.081Z,15.20
2022-10-05T07:37:55.478Z,15.20
2022-10-05T07:40:47.387Z,15.40
2022-10-05T07:44:01.078Z,15.40
2022-10-05T07:46:54.083Z,15.50
2022-10-05T07:49:50.413Z,15.60
2022-10-05T07:52:42.384Z,15.60
2022-10-05T07:55:33.700Z,15.70
2022-10-05T07:58:27.627Z,15.70
2022-10-05T08:01:19.293Z,15.80
2022-10-05T08:04:12.188Z,15.80
2022-10-05T08:07:03.458Z,15.80
2022-10-05T08:09:56.724Z,15.70
2022-10-05T08:12:57.975Z,15.70
2022-10-05T08:15:51.531Z,15.70
2022-10-05T08:18:48.502Z,15.80
2022-10-05T08:21:39.339Z,15.80
2022-10-05T08:24:42.054Z,15.90
2022-10-05T08:27:36.998Z,15.90
2022-10-05T08:30:24.327Z,16.00
2022-10-05T08:33:15.940Z,16.00
2022-10-05T08:36:07.833Z,16.00
2022-10-05T08:38:56.393Z,16.00
2022-10-05T08:42:03.881Z,16.10
2022-10-05T08:45:27.125Z,16.10
2022-10-05T08:48:41.192Z,16.10
2022-10-05T08:51:48.410Z,16.10
2022-10-05T08:54:44.387Z,16.10
2022-10-05T08:58:03.698Z,16.20
2022-10-05T09:01:02.721Z,16.20
2022-10-05T09:04:08.580Z,16.20
2022-10-05T09:07:11.599Z,16.20
2022-10-05T09:10:37.304Z,16.20
2022-10-05T09:13:53.579Z,16.10
2022-10-05T09:16:50.416Z,16.00
2022-10-05T09:20:07.521Z,16.00
2022-10-05T09:23:10.063Z,16.10
2022-10-05T09:26:00.639Z,16.00
2022-10-05T09:29:00.643Z,16.10
2022-10-05T09:32:12.937Z,16.10
2022-10-05T09:35:17.126Z,16.10
2022-10-05T09:38:18.776Z,16.10
2022-10-05T09:41:35.126Z,16.10
2022-10-05T09:45:04.265Z,16.00
2022-10-05T09:48:18.655Z,16.00
2022-10-05T09:51:40.632Z,16.00
2022-10-05T09:54:56.929Z,16.00
2022-10-05T09:58:20.373Z,16.00
2022-10-05T10:01:34.909Z,16.20
2022-10-05T10:04:53.205Z,16.20
2022-10-05T10:08:08.359Z,16.30
2022-10-05T10:11:16.935Z,16.30
2022-10-05T10:14:20.400Z,16.40
2022-10-05T10:17:30.394Z,16.50
2022-10-05T10:20:39.131Z,16.40
2022-10-05T10:24:00.125Z,16.50
2022-10-05T10:27:27.563Z,16.60
2022-10-05T10:30:43.335Z,16.70
2022-10-05T10:33:58.113Z,16.70
2022-10-05T10:37:02.241Z,16.80
2022-10-05T10:40:13.648Z,16.80
2022-10-05T10:43:33.357Z,16.90
2022-10-05T10:46:35.519Z,17.00
2022-10-05T10:49:42.416Z,17.10
2022-10-05T10:52:49.046Z,17.10
2022-10-05T10:55:42.551Z,17.20
2022-10-05T10:59:06.807Z,17.30
2022-10-05T11:02:21.675Z,17.40
2022-10-05T11:05:27.524Z,17.40
2022-10-05T11:08:48.764Z,17.50
2022-10-05T11:12:14.841Z,17.50
2022-10-05T11:15:32.558Z,17.70
2022-10-05T11:18:28.725Z,17.80
2022-10-05T11:21:30.438Z,17.80
2022-10-05T11:24:45.091Z,17.70
2022-10-05T11:27:59.068Z,17.80
2022-10-05T11:31:24.279Z,18.00
2022-10-05T11:34:55.087Z,18.20
2022-10-05T11:37:58.409Z,18.20
2022-10-05T11:41:25.724Z,18.20
2022-10-05T11:45:01.037Z,18.40
2022-10-05T11:48:03.133Z,18.50
2022-10-05T11:51:04.805Z,18.60
2022-10-05T11:53:59.915Z,18.60
2022-10-05T11:56:54.661Z,18.80
2022-10-05T11:59:49.208Z,19.10
2022-10-05T12:03:04.330Z,19.30
2022-10-05T12:06:14.884Z,19.40
2022-10-05T12:09:14.497Z,19.30
2022-10-05T12:12:10.640Z,19.40
2022-10-05T12:15:02.773Z,19.40
2022-10-05T12:17:56.372Z,19.40
2022-10-05T12:20:50.030Z,19.50
2022-10-05T12:23:43.526Z,19.70
2022-10-05T12:26:35.260Z,19.70
2022-10-05T12:29:28.556Z,19.50
2022-10-05T12:32:20.432Z,19.70
2022-10-05T12:35:13.819Z,19.80
2022-10-05T12:38:10.774Z,19.60
2022-10-05T12:41:08.942Z,19.80
2022-10-05T12:44:12.280Z,19.70
2022-10-05T12:47:11.669Z,19.70
2022-10-05T12:50:14.337Z,19.80
2022-10-05T12:53:15.637Z,19.60
2022-10-05T12:56:09.771Z,19.40
2022-10-05T12:59:04.846Z,19.10
2022-10-05T13:02:05.605Z,19.10
2022-10-05T13:05:00.796Z,18.90
2022-10-05T13:08:03.831Z,18.80
2022-10-05T13:10:57.839Z,18.80
2022-10-05T13:13:55.609Z,18.60
2022-10-05T13:16:54.829Z,18.90
2022-10-05T13:19:47.657Z,19.10
2022-10-05T13:22:37.678Z,19.10
2022-10-05T13:25:30.704Z,19.00
2022-10-05T13:28:22.430Z,19.10
2022-10-05T13:31:16.098Z,19.10
2022-10-05T13:34:15.325Z,19.20
2022-10-05T13:37:13.366Z,19.40
2022-10-05T13:40:14.673Z,19.50
2022-10-05T13:43:07.083Z,19.50
2022-10-05T13:45:57.138Z,19.40
2022-10-05T13:48:52.928Z,19.60
2022-10-05T13:51:45.811Z,19.70
2022-10-05T13:54:43.846Z,19.60
2022-10-05T13:57:45.254Z,19.70
2022-10-05T14:00:32.832Z,19.60
2022-10-05T14:03:32.719Z,19.70
2022-10-05T14:06:30.317Z,19.80
2022-10-05T14:09:30.639Z,19.90
2022-10-05T14:12:23.311Z,20.10
2022-10-05T14:15:22.261Z,20.20
2022-10-05T14:18:25.557Z,20.10
2022-10-05T14:21:23.099Z,20.20
2022-10-05T14:24:42.402Z,20.10
2022-10-05T14:27:30.349Z,20.20
2022-10-05T14:30:23.732Z,20.30
2022-10-05T14:33:17.338Z,20.30
2022-10-05T14:36:05.331Z,20.20
2022-10-05T14:38:56.180Z,20.30
2022-10-05T14:41:48.869Z,20.40
2022-10-05T14:44:36.720Z,20.30
2022-10-05T14:47:25.242Z,20.20
2022-10-05T14:50:18.086Z,20.20
2022-10-05T14:53:16.612Z,20.30
2022-10-05T14:56:27.161Z,20.40
2022-10-05T14:59:46.832Z,20.60
2022-10-05T15:03:09.688Z,20.50
2022-10-05T15:06:01.814Z,20.70
2022-10-05T15:08:57.951Z,20.70
2022-10-05T15:11:50.415Z,20.90
2022-10-05T15:14:41.101Z,21.00
2022-10-05T15:17:37.585Z,21.00
2022-10-05T15:20:27.809Z,21.20
2022-10-05T15:23:24.535Z,21.40
2022-10-05T15:26:33.475Z,21.30
2022-10-05T15:29:42.445Z,21.50
2022-10-05T15:32:42.129Z,21.70
2022-10-05T15:35:50.216Z,21.70
2022-10-05T15:38:49.792Z,21.70
2022-10-05T15:41:58.889Z,22.00
2022-10-05T15:44:56.825Z,22.20
2022-10-05T15:47:54.127Z,22.30
2022-10-05T15:50:55.437Z,22.60
2022-10-05T15:53:48.063Z,22.80
2022-10-05T15:56:39.611Z,22.50
2022-10-05T15:59:35.470Z,22.60
2022-10-05T16:02:29.944Z,23.00
2022-10-05T16:05:51.318Z,23.20
2022-10-05T16:09:06.964Z,23.40
2022-10-05T16:12:07.216Z,23.20
2022-10-05T16:15:05.084Z,22.70
2022-10-05T16:18:11.187Z,22.10
2022-10-05T16:21:10.955Z,21.70
2022-10-05T16:24:10.646Z,21.40
2022-10-05T16:27:00.439Z,21.20
2022-10-05T16:29:56.016Z,20.90
2022-10-05T16:32:50.004Z,20.60
2022-10-05T16:35:47.516Z,20.40
2022-10-05T16:38:47.152Z,20.20
2022-10-05T16:41:41.523Z,20.10
2022-10-05T16:44:39.968Z,20.00
2022-10-05T16:47:40.520Z,19.80
2022-10-05T16:50:37.136Z,19.80
2022-10-05T16:53:28.672Z,19.70
2022-10-05T16:56:19.921Z,19.70
2022-10-05T16:59:25.775Z,19.50
2022-10-05T17:02:22.759Z,19.30
2022-10-05T17:05:28.332Z,19.10
2022-10-05T17:08:41.425Z,19.10
2022-10-05T17:11:43.004Z,18.80
2022-10-05T17:14:39.812Z,18.80
2022-10-05T17:17:53.171Z,18.70
2022-10-05T17:20:49.233Z,18.80
2022-10-05T17:23:53.496Z,18.60
2022-10-05T17:26:57.217Z,18.60
2022-10-05T17:29:51.398Z,18.70
2022-10-05T17:32:55.224Z,18.80
2022-10-05T17:35:50.769Z,18.90
2022-10-05T17:38:52.294Z,18.80
2022-10-05T17:41:39.278Z,18.90
2022-10-05T17:44:27.555Z,19.00
2022-10-05T17:47:16.148Z,18.90
2022-10-05T17:50:20.115Z,19.10
2022-10-05T17:53:53.681Z,19.10
2022-10-05T17:57:19.056Z,19.00
2022-10-05T18:00:29.360Z,19.00
2022-10-05T18:03:40.751Z,19.00
2022-10-05T18:06:36.522Z,19.00
2022-10-05T18:09:36.188Z,19.10
2022-10-05T18:12:43.194Z,19.10
2022-10-05T18:15:48.525Z,19.10
2022-10-05T18:18:54.591Z,19.10
2022-10-05T18:21:59.901Z,19.10
2022-10-05T18:25:03.903Z,19.10
2022-10-05T18:28:18.467Z,19.10
2022-10-05T18:31:20.570Z,19.10
2022-10-05T18:34:27.336Z,19.10
2022-10-05T18:37:28.933Z,19.10
2022-10-05T18:40:34.835Z,19.00
2022-10-05T18:43:31.659Z,19.00
2022-10-05T18:46:33.014Z,19.00
2022-10-05T18:49:40.326Z,19.00
2022-10-05T18:52:37.549Z,19.00
2022-10-05T18:55:32.961Z,18.90
2022-10-05T18:58:27.223Z,18.90
2022-10-05T19:01:37.449Z,18.90
2022-10-05T19:04:33.265Z,18.90
2022-10-05T19:07:28.977Z,18.90
2022-10-05T19:10:25.444Z,18.80
2022-10-05T19:13:31.652Z,18.80
2022-10-05T19:16:42.066Z,18.80
2022-10-05T19:19:53.031Z,18.80
2022-10-05T19:22:56.201Z,18.80
2022-10-05T19:25:51.229Z,18.80
2022-10-05T19:28:47.504Z,18.80
2022-10-05T19:31:42.084Z,18.80
2022-10-05T19:34:42.702Z,18.80
2022-10-05T19:37:39.972Z,18.80
2022-10-05T19:40:33.917Z,18.90
2022-10-05T19:43:42.444Z,18.90
2022-10-05T19:46:42.930Z,18.80
2022-10-05T19:49:38.320Z,18.80
2022-10-05T19:52:28.816Z,18.70
2022-10-05T19:55:26.421Z,18.70
2022-10-05T19:58:22.350Z,18.70
2022-10-05T20:01:11.940Z,18.70
2022-10-05T20:03:59.792Z,18.70
2022-10-05T20:06:47.965Z,18.70
2022-10-05T20:09:50.780Z,18.70
2022-10-05T20:12:50.799Z,18.60
2022-10-05T20:15:55.387Z,18.70
2022-10-05T20:19:06.979Z,18.70
2022-10-05T20:21:56.718Z,18.60
2022-10-05T20:24:51.341Z,18.60
2022-10-05T20:27:46.804Z,18.60
2022-10-05T20:30:33.968Z,18.60
2022-10-05T20:33:20.669Z,18.60
2022-10-05T20:36:08.624Z,18.60
2022-10-05T20:38:56.537Z,18.60
2022-10-05T20:41:43.676Z,18.60
2022-10-05T20:44:30.110Z,18.60
2022-10-05T20:47:16.555Z,18.50
2022-10-05T20:50:05.004Z,18.50
2022-10-05T20:52:52.405Z,18.50
2022-10-05T20:55:40.591Z,18.50
2022-10-05T20:58:27.692Z,18.60
2022-10-05T21:01:19.883Z,18.50
2022-10-05T21:04:06.951Z,18.50
2022-10-05T21:06:53.937Z,18.60
2022-10-05T21:09:42.287Z,18.60
2022-10-05T21:12:30.351Z,18.60
2022-10-05T21:15:17.116Z,18.60
2022-10-05T21:18:03.806Z,18.60
2022-10-05T21:20:50.607Z,18.60
2022-10-05T21:23:37.577Z,18.60
2022-10-05T21:26:24.373Z,18.60
2022-10-05T21:29:13.298Z,18.50
2022-10-05T21:31:59.825Z,18.60
2022-10-05T21:34:46.797Z,18.60
2022-10-05T21:37:33.288Z,18.50
2022-10-05T21:40:19.795Z,18.50
2022-10-05T21:43:06.311Z,18.60
2022-10-05T21:45:56.223Z,18.60
2022-10-05T21:48:43.219Z,18.60
2022-10-05T21:51:30.171Z,18.60
2022-10-05T21:54:20.726Z,18.50
2022-10-05T21:57:07.524Z,18.60
2022-10-05T21:59:54.111Z,18.50
2022-10-05T22:02:41.901Z,18.60
2022-10-05T22:05:28.619Z,18.50
2022-10-05T22:08:22.028Z,18.60
2022-10-05T22:11:14.054Z,18.60
2022-10-05T22:14:02.846Z,18.50
2022-10-05T22:16:49.899Z,18.40
2022-10-05T22:19:37.944Z,18.40
2022-10-05T22:22:24.730Z,18.40
2022-10-05T22:25:11.510Z,18.40
2022-10-05T22:27:58.050Z,18.40
2022-10-05T22:30:46.087Z,18.40
2022-10-05T22:33:33.175Z,18.40
2022-10-05T22:36:21.887Z,18.40
2022-10-05T22:39:08.563Z,18.40
2022-10-05T22:41:55.210Z,18.40
2022-10-05T22:44:42.017Z,18.40
2022-10-05T22:47:28.542Z,18.40
2022-10-05T22:50:15.377Z,18.50
2022-10-05T22:53:03.344Z,18.50
2022-10-05T22:55:50.142Z,18.50
2022-10-05T22:58:36.995Z,18.60
2022-10-05T23:01:23.578Z,18.50
2022-10-05T23:04:11.684Z,18.50
2022-10-05T23:06:58.408Z,18.50
2022-10-05T23:09:46.415Z,18.40
2022-10-05T23:12:34.365Z,18.40
2022-10-05T23:15:21.096Z,18.40
2022-10-05T23:18:07.544Z,18.30
2022-10-05T23:20:55.273Z,18.40
2022-10-05T23:23:43.388Z,18.30
2022-10-05T23:26:32.316Z,18.30
2022-10-05T23:29:18.758Z,18.40
2022-10-05T23:32:05.573Z,18.30
2022-10-05T23:34:52.089Z,18.30
2022-10-05T23:37:39.536Z,18.20
2022-10-05T23:40:26.229Z,17.80
2022-10-05T23:43:15.326Z,17.50
2022-10-05T23:46:02.432Z,17.30
2022-10-05T23:48:50.317Z,17.00
2022-10-05T23:51:37.364Z,16.90
2022-10-05T23:54:23.826Z,16.60
2022-10-05T23:57:10.353Z,16.50
2022-10-05T23:59:58.158Z,16.20
